Time;durP1;ratioP1;P1;durP2;ratioP2;P2;SDS_P1;SDS_P2;PMS_P1;PMS_P2;Temp;Humidity;BMP_temperature;BMP_pressure;BME280_temperature;BME280_humidity;BME280_pressure;Samples;Min_cycle;Max_cycle;Signal;HPM_P1;HPM_P2
2021/06/11 00:00:16;;;;;;;14.60;10.32;;;17.90;99.90;;;;;;5067234;28;20020;-66
2021/06/11 00:02:42;;;;;;;16.52;11.50;;;18.00;99.90;;;;;;5064251;28;20043;-65
2021/06/11 00:05:09;;;;;;;17.98;11.88;;;18.00;99.90;;;;;;5064264;28;20035;-65
2021/06/11 00:07:35;;;;;;;18.83;12.55;;;18.00;99.90;;;;;;5067330;28;20116;-65
2021/06/11 00:10:03;;;;;;;19.40;12.30;;;18.00;99.90;;;;;;5067116;28;20108;-64
2021/06/11 00:12:29;;;;;;;19.38;13.13;;;18.00;99.90;;;;;;5070084;28;20036;-65
2021/06/11 00:14:54;;;;;;;18.73;12.48;;;18.00;99.90;;;;;;5071630;28;20407;-65
2021/06/11 00:17:20;;;;;;;18.88;12.48;;;18.00;99.90;;;;;;5070270;28;20028;-63
2021/06/11 00:19:46;;;;;;;19.75;12.98;;;18.00;99.90;;;;;;5069477;28;20028;-64
2021/06/11 00:22:11;;;;;;;26.30;14.80;;;17.90;99.90;;;;;;5062626;28;20570;-64
2021/06/11 00:24:38;;;;;;;23.38;13.60;;;17.70;99.90;;;;;;5067457;28;20028;-63
2021/06/11 00:27:04;;;;;;;26.10;16.02;;;17.60;99.90;;;;;;5063271;28;20028;-65
2021/06/11 00:29:29;;;;;;;27.67;16.23;;;17.40;99.90;;;;;;5062934;28;20024;-67
2021/06/11 00:31:55;;;;;;;30.63;17.13;;;17.30;99.90;;;;;;5058161;28;20156;-63
2021/06/11 00:34:20;;;;;;;29.52;17.35;;;17.30;99.90;;;;;;5064309;28;20041;-64
2021/06/11 00:36:46;;;;;;;35.38;18.52;;;17.30;99.90;;;;;;5064436;28;20039;-64
2021/06/11 00:39:11;;;;;;;31.77;17.65;;;17.20;99.90;;;;;;5062694;28;20044;-65
2021/06/11 00:41:37;;;;;;;32.50;18.15;;;17.30;99.90;;;;;;5060987;28;20037;-66
2021/06/11 00:44:03;;;;;;;32.53;18.65;;;17.30;99.90;;;;;;5064737;28;20020;-64
2021/06/11 00:46:28;;;;;;;34.13;18.58;;;17.20;99.90;;;;;;5068778;28;20048;-65
2021/06/11 00:48:54;;;;;;;49.72;19.95;;;17.20;99.90;;;;;;5067415;28;20021;-64
2021/06/11 00:51:22;;;;;;;34.17;18.48;;;17.10;99.90;;;;;;5060379;28;20516;-65
2021/06/11 00:53:48;;;;;;;37.10;18.58;;;17.00;99.90;;;;;;5067374;28;20028;-64
2021/06/11 00:56:15;;;;;;;33.03;18.05;;;16.90;99.90;;;;;;5066541;28;20316;-66
2021/06/11 00:58:40;;;;;;;34.22;18.58;;;16.90;99.90;;;;;;5063945;28;20161;-63
2021/06/11 01:01:06;;;;;;;32.20;17.58;;;17.00;99.90;;;;;;5063992;28;20058;-66
2021/06/11 01:03:31;;;;;;;28.98;18.20;;;17.00;99.90;;;;;;5064560;28;20028;-64
2021/06/11 01:05:57;;;;;;;31.80;18.05;;;16.90;99.90;;;;;;5062245;28;20028;-65
2021/06/11 01:08:24;;;;;;;31.52;17.63;;;16.90;99.90;;;;;;5066887;28;20581;-65
2021/06/11 01:10:51;;;;;;;40.13;20.35;;;16.90;99.90;;;;;;5067245;28;20024;-65
2021/06/11 01:13:18;;;;;;;38.38;19.90;;;17.00;99.90;;;;;;5062241;28;20051;-65
2021/06/11 01:15:47;;;;;;;30.60;18.95;;;17.10;99.90;;;;;;5064943;28;20020;-64
2021/06/11 01:18:13;;;;;;;36.22;19.77;;;17.10;99.90;;;;;;5065161;28;20099;-64
2021/06/11 01:20:39;;;;;;;33.05;19.63;;;17.10;99.90;;;;;;5058485;28;20116;-65
2021/06/11 01:23:49;;;;;;;42.15;22.55;;;17.00;99.90;;;;;;5057036;28;20086;-66
2021/06/11 01:26:20;;;;;;;37.03;21.63;;;16.90;99.90;;;;;;5054139;28;20068;-66
2021/06/11 01:28:47;;;;;;;43.42;23.15;;;16.90;99.90;;;;;;5056842;28;20024;-65
2021/06/11 01:31:13;;;;;;;45.67;23.70;;;16.90;99.90;;;;;;5066131;28;20691;-65
2021/06/11 01:33:39;;;;;;;44.10;24.45;;;17.00;99.90;;;;;;5060945;28;20047;-65
2021/06/11 01:36:10;;;;;;;53.17;25.25;;;17.00;99.90;;;;;;5065627;28;20024;-64
2021/06/11 01:38:39;;;;;;;45.80;22.80;;;16.90;99.90;;;;;;5065778;28;20083;-64
2021/06/11 01:41:07;;;;;;;47.60;25.65;;;16.90;99.90;;;;;;5066797;28;20561;-64
2021/06/11 01:43:35;;;;;;;50.28;26.15;;;16.90;99.90;;;;;;5066610;28;20368;-65
2021/06/11 01:46:01;;;;;;;40.28;23.27;;;17.00;99.90;;;;;;5067184;28;20545;-64
2021/06/11 01:48:28;;;;;;;47.28;25.90;;;17.00;99.90;;;;;;5068502;28;20498;-66
2021/06/11 01:50:56;;;;;;;39.88;24.52;;;17.10;99.90;;;;;;5065134;28;20136;-63
2021/06/11 01:53:23;;;;;;;49.45;26.33;;;17.10;99.90;;;;;;5065071;28;20027;-64
2021/06/11 01:55:49;;;;;;;71.70;30.48;;;17.10;99.90;;;;;;5066369;28;20082;-64
2021/06/11 01:58:17;;;;;;;56.47;30.35;;;17.00;99.90;;;;;;5062559;28;20060;-64
2021/06/11 02:00:44;;;;;;;57.20;30.45;;;16.90;99.90;;;;;;5080022;28;20047;-64
2021/06/11 02:03:12;;;;;;;66.57;30.65;;;16.90;99.90;;;;;;5066372;28;20432;-64
2021/06/11 02:05:39;;;;;;;56.78;29.10;;;16.70;99.90;;;;;;5062422;28;20025;-65
2021/06/11 02:08:05;;;;;;;53.92;28.55;;;16.70;99.90;;;;;;5067329;28;20036;-64
2021/06/11 02:10:32;;;;;;;56.47;29.50;;;16.70;99.90;;;;;;5061519;28;20017;-64
2021/06/11 02:12:58;;;;;;;48.15;28.25;;;16.80;99.90;;;;;;5073270;28;20489;-65
2021/06/11 02:15:28;;;;;;;46.08;26.60;;;16.80;99.90;;;;;;5066773;28;20025;-64
2021/06/11 02:17:56;;;;;;;47.10;26.17;;;16.90;99.90;;;;;;5072078;28;20041;-64
2021/06/11 02:20:25;;;;;;;48.97;26.70;;;17.00;99.90;;;;;;5054899;28;20107;-65
2021/06/11 02:22:51;;;;;;;45.90;26.42;;;17.00;99.90;;;;;;5065628;28;20033;-64
2021/06/11 02:25:18;;;;;;;48.75;27.50;;;17.00;99.90;;;;;;5070760;28;20104;-65
2021/06/11 02:27:46;;;;;;;50.30;29.35;;;17.10;99.90;;;;;;5063466;28;20009;-68
2021/06/11 02:30:15;;;;;;;53.42;29.05;;;17.00;99.90;;;;;;5062393;28;20025;-64
2021/06/11 02:32:41;;;;;;;57.65;29.50;;;17.00;99.90;;;;;;5062682;28;20035;-64
2021/06/11 02:35:09;;;;;;;57.58;30.95;;;17.00;99.90;;;;;;5065581;28;20028;-65
2021/06/11 02:37:36;;;;;;;60.05;31.02;;;16.80;99.90;;;;;;5066454;28;20024;-64
2021/06/11 02:40:05;;;;;;;52.65;30.40;;;16.60;99.90;;;;;;5067381;28;20089;-65
2021/06/11 02:42:31;;;;;;;52.45;30.02;;;16.60;99.90;;;;;;5076909;28;20048;-65
2021/06/11 02:45:03;;;;;;;54.33;28.15;;;16.50;99.90;;;;;;5070650;28;20432;-63
2021/06/11 02:47:39;;;;;;;52.20;28.57;;;16.40;99.90;;;;;;5069045;28;20526;-65
2021/06/11 02:50:10;;;;;;;47.15;26.27;;;16.50;99.90;;;;;;5068289;28;20300;-67
2021/06/11 02:52:43;;;;;;;48.10;24.73;;;16.50;99.90;;;;;;5064263;28;20112;-65
2021/06/11 02:55:10;;;;;;;47.15;25.35;;;16.60;99.90;;;;;;5055866;28;20068;-64
2021/06/11 02:57:45;;;;;;;44.22;24.55;;;16.60;99.90;;;;;;5064494;28;20028;-64
2021/06/11 03:00:12;;;;;;;42.08;23.27;;;16.60;99.90;;;;;;5070799;28;20032;-65
2021/06/11 03:02:52;;;;;;;40.67;23.85;;;16.60;99.90;;;;;;5068705;28;20529;-63
2021/06/11 03:05:20;;;;;;;37.55;22.55;;;16.70;99.90;;;;;;5056842;28;20040;-63
2021/06/11 03:07:47;;;;;;;43.10;24.95;;;16.80;99.90;;;;;;5062346;28;20109;-64
2021/06/11 03:10:14;;;;;;;39.67;22.92;;;16.80;99.90;;;;;;5063417;28;20029;-63
2021/06/11 03:12:41;;;;;;;41.17;23.80;;;16.80;99.90;;;;;;5061825;28;20025;-65
2021/06/11 03:15:08;;;;;;;42.15;24.15;;;16.80;99.90;;;;;;5062533;28;20025;-64
2021/06/11 03:17:42;;;;;;;37.80;23.95;;;16.90;99.90;;;;;;5067490;28;20110;-64
2021/06/11 03:20:13;;;;;;;42.20;25.55;;;17.00;99.90;;;;;;5059166;28;20245;-66
2021/06/11 03:22:51;;;;;;;44.55;24.38;;;17.00;99.90;;;;;;5067216;28;20029;-64
2021/06/11 03:25:24;;;;;;;36.33;22.63;;;17.10;99.90;;;;;;5065098;28;20027;-64
2021/06/11 03:28:08;;;;;;;42.08;24.20;;;17.00;99.90;;;;;;5065515;28;20522;-64
2021/06/11 03:30:34;;;;;;;44.25;24.20;;;16.90;99.90;;;;;;5066929;28;20520;-64
2021/06/11 03:33:08;;;;;;;39.17;23.77;;;16.80;99.90;;;;;;5063727;28;20101;-65
2021/06/11 03:35:57;;;;;;;38.50;23.35;;;16.70;99.90;;;;;;5060145;28;20020;-64
2021/06/11 03:38:25;;;;;;;40.35;23.50;;;16.80;99.90;;;;;;5062301;28;20547;-65
2021/06/11 03:40:53;;;;;;;42.85;23.88;;;16.90;99.90;;;;;;5064535;28;20056;-65
2021/06/11 03:43:19;;;;;;;42.85;24.38;;;16.90;99.90;;;;;;5062706;28;20028;-64
2021/06/11 03:45:46;;;;;;;44.05;23.58;;;16.90;99.90;;;;;;5063236;28;20285;-63
2021/06/11 03:48:14;;;;;;;45.40;26.70;;;16.90;99.90;;;;;;5075042;28;20035;-64
2021/06/11 03:50:41;;;;;;;40.35;25.50;;;16.80;99.90;;;;;;5056715;28;20513;-64
2021/06/11 03:53:07;;;;;;;44.05;27.75;;;16.80;99.90;;;;;;5056251;28;20120;-63
2021/06/11 03:55:45;;;;;;;44.25;27.27;;;16.80;99.90;;;;;;5053668;28;20111;-65
2021/06/11 03:58:28;;;;;;;48.78;32.00;;;16.80;99.90;;;;;;5059722;28;21191;-63
2021/06/11 04:00:58;;;;;;;54.13;31.25;;;16.90;99.90;;;;;;5067476;28;20028;-64
2021/06/11 04:03:24;;;;;;;54.70;32.08;;;16.80;99.90;;;;;;5057574;28;20519;-65
2021/06/11 04:05:59;;;;;;;56.75;31.63;;;16.90;99.90;;;;;;5052092;28;20031;-64
2021/06/11 04:08:30;;;;;;;57.70;34.47;;;17.00;99.90;;;;;;5060791;28;20055;-63
2021/06/11 04:10:57;;;;;;;53.78;32.72;;;17.00;99.90;;;;;;5065201;28;20479;-64
2021/06/11 04:13:39;;;;;;;56.15;30.77;;;17.20;99.90;;;;;;5064499;28;20044;-64
2021/06/11 04:16:10;;;;;;;51.00;27.42;;;17.10;99.90;;;;;;5062951;28;20396;-64
2021/06/11 04:18:39;;;;;;;52.28;28.42;;;17.00;99.90;;;;;;5055910;28;20033;-64
2021/06/11 04:21:08;;;;;;;43.97;25.92;;;17.00;99.90;;;;;;5050572;28;20017;-65
2021/06/11 04:23:35;;;;;;;55.38;27.60;;;17.00;99.90;;;;;;5066914;28;20040;-63
2021/06/11 04:26:05;;;;;;;53.65;27.60;;;17.10;99.90;;;;;;5062814;28;20013;-64
2021/06/11 04:28:33;;;;;;;55.40;29.85;;;17.00;99.90;;;;;;5064031;28;20021;-63
2021/06/11 04:30:59;;;;;;;50.55;27.92;;;16.90;99.90;;;;;;5061768;28;20029;-63
2021/06/11 04:33:28;;;;;;;50.45;27.52;;;16.90;99.90;;;;;;5060106;28;20081;-64
2021/06/11 04:35:54;;;;;;;50.80;28.58;;;17.00;99.90;;;;;;5064829;28;20025;-64
2021/06/11 04:38:21;;;;;;;50.85;29.30;;;17.10;99.90;;;;;;5067973;28;20016;-63
2021/06/11 04:40:47;;;;;;;56.28;33.13;;;17.10;99.90;;;;;;5066540;28;20017;-64
2021/06/11 04:43:13;;;;;;;57.22;34.55;;;17.00;99.90;;;;;;5068264;28;20144;-62
2021/06/11 04:45:39;;;;;;;56.00;32.67;;;17.00;99.90;;;;;;5068449;28;20024;-63
2021/06/11 04:48:05;;;;;;;56.92;33.60;;;17.00;99.90;;;;;;5066495;28;20032;-63
2021/06/11 04:50:31;;;;;;;52.78;32.15;;;17.00;99.90;;;;;;5063010;28;20059;-63
2021/06/11 04:52:57;;;;;;;61.22;34.50;;;17.00;99.90;;;;;;5069211;28;20363;-62
2021/06/11 04:55:23;;;;;;;56.60;33.60;;;17.00;99.90;;;;;;5065777;28;20112;-62
2021/06/11 04:57:50;;;;;;;56.78;33.72;;;16.90;99.90;;;;;;5067443;28;20033;-62
2021/06/11 05:00:17;;;;;;;60.95;34.35;;;17.00;99.90;;;;;;5065495;28;20028;-62
2021/06/11 05:02:42;;;;;;;62.13;36.25;;;17.00;99.90;;;;;;5060263;28;20031;-62
2021/06/11 05:05:09;;;;;;;61.53;36.40;;;17.10;99.90;;;;;;5066046;28;20025;-63
2021/06/11 05:07:35;;;;;;;53.30;35.28;;;17.00;99.90;;;;;;5073328;22;20344;-65
2021/06/11 05:10:05;;;;;;;63.58;35.88;;;17.00;99.90;;;;;;5048860;28;20051;-66
2021/06/11 05:12:31;;;;;;;56.90;35.35;;;17.10;99.90;;;;;;5048928;28;20177;-65
2021/06/11 05:14:57;;;;;;;65.93;35.78;;;17.20;99.90;;;;;;5046958;28;20075;-66
2021/06/11 05:17:22;;;;;;;63.58;35.85;;;17.30;99.90;;;;;;5047611;28;20317;-65
2021/06/11 05:19:48;;;;;;;62.25;36.40;;;17.30;99.90;;;;;;5041725;28;20020;-65
2021/06/11 05:22:14;;;;;;;58.70;34.67;;;17.20;99.90;;;;;;5043236;28;20108;-66
2021/06/11 05:24:39;;;;;;;59.95;35.97;;;17.30;99.90;;;;;;5040362;28;20044;-64
2021/06/11 05:27:05;;;;;;;61.20;35.67;;;17.30;99.90;;;;;;5044159;28;20087;-66
2021/06/11 05:29:31;;;;;;;59.97;37.00;;;17.40;99.90;;;;;;5042190;28;20029;-65
2021/06/11 05:31:57;;;;;;;64.07;38.40;;;17.60;99.90;;;;;;5037863;28;20483;-64
2021/06/11 05:34:22;;;;;;;58.53;35.28;;;17.60;99.90;;;;;;5040878;28;20118;-65
2021/06/11 05:36:48;;;;;;;61.35;34.38;;;17.50;99.90;;;;;;5033429;28;20030;-63
2021/06/11 05:39:14;;;;;;;55.08;33.78;;;17.50;99.90;;;;;;5043141;28;20104;-65
2021/06/11 05:41:40;;;;;;;52.45;32.25;;;17.50;99.90;;;;;;5032090;28;20122;-64
2021/06/11 05:44:06;;;;;;;53.50;33.20;;;17.50;99.90;;;;;;5043841;28;20143;-67
2021/06/11 05:46:33;;;;;;;55.53;34.10;;;17.60;99.90;;;;;;5039819;28;20124;-65
2021/06/11 05:48:59;;;;;;;60.47;33.25;;;17.70;99.90;;;;;;5045768;28;20033;-63
2021/06/11 05:51:25;;;;;;;49.92;31.27;;;17.80;99.90;;;;;;5045950;28;20032;-63
2021/06/11 05:53:51;;;;;;;52.00;32.88;;;18.00;99.90;;;;;;5043372;28;20035;-65
2021/06/11 05:56:19;;;;;;;64.82;33.85;;;18.10;99.90;;;;;;5029957;28;20160;-64
2021/06/11 05:58:46;;;;;;;60.70;35.13;;;18.10;99.90;;;;;;5051127;28;20072;-67
2021/06/11 06:01:12;;;;;;;56.10;33.78;;;18.20;99.90;;;;;;5042971;28;20145;-65
2021/06/11 06:03:37;;;;;;;57.67;33.95;;;18.10;99.90;;;;;;5040142;28;20116;-65
2021/06/11 06:06:03;;;;;;;59.35;35.38;;;18.10;99.90;;;;;;5050803;28;20017;-64
2021/06/11 06:08:29;;;;;;;52.03;32.13;;;18.20;99.90;;;;;;5044913;28;20079;-67
2021/06/11 06:10:54;;;;;;;53.75;33.38;;;18.20;99.90;;;;;;5043947;28;20025;-64
2021/06/11 06:13:20;;;;;;;56.85;33.00;;;18.20;99.90;;;;;;5043573;28;20029;-66
2021/06/11 06:15:46;;;;;;;55.35;32.28;;;18.00;99.90;;;;;;5048069;28;20115;-64
2021/06/11 06:18:13;;;;;;;57.25;33.35;;;18.10;99.90;;;;;;5034433;28;20113;-64
2021/06/11 06:20:40;;;;;;;48.83;30.60;;;18.10;99.90;;;;;;5049463;28;20174;-67
2021/06/11 06:23:05;;;;;;;60.13;32.15;;;18.10;99.90;;;;;;5049548;28;20078;-64
2021/06/11 06:25:31;;;;;;;62.85;33.72;;;18.20;99.90;;;;;;5046632;28;20032;-65
2021/06/11 06:27:57;;;;;;;64.03;35.13;;;18.20;99.90;;;;;;5043727;28;20017;-64
2021/06/11 06:30:23;;;;;;;63.60;36.45;;;18.10;99.90;;;;;;5047350;28;20013;-65
2021/06/11 06:32:49;;;;;;;55.03;32.83;;;18.20;99.90;;;;;;5045923;28;20256;-65
2021/06/11 06:35:15;;;;;;;64.47;35.38;;;18.30;99.90;;;;;;5046102;28;20032;-65
2021/06/11 06:37:41;;;;;;;66.13;38.70;;;18.30;99.90;;;;;;5049659;28;20029;-66
2021/06/11 06:40:07;;;;;;;58.63;36.33;;;18.20;99.90;;;;;;5047676;28;20025;-64
2021/06/11 06:42:33;;;;;;;59.28;33.72;;;18.20;99.90;;;;;;5055474;28;20018;-64
2021/06/11 06:44:59;;;;;;;48.50;27.48;;;18.20;99.90;;;;;;5054497;28;20065;-64
2021/06/11 06:47:25;;;;;;;45.65;25.90;;;18.10;99.90;;;;;;5045302;28;20419;-65
2021/06/11 06:49:50;;;;;;;50.30;29.95;;;18.10;99.90;;;;;;5045820;28;20450;-65
2021/06/11 06:52:17;;;;;;;42.83;26.35;;;18.20;99.90;;;;;;5062964;28;20116;-65
2021/06/11 06:54:43;;;;;;;40.92;25.40;;;18.40;99.90;;;;;;5049464;28;20371;-66
2021/06/11 06:57:10;;;;;;;41.47;25.80;;;18.50;99.90;;;;;;5036116;28;20028;-64
2021/06/11 06:59:36;;;;;;;43.28;24.52;;;18.60;99.90;;;;;;5044472;28;20025;-64
2021/06/11 07:02:02;;;;;;;47.92;28.40;;;18.60;99.90;;;;;;5044079;28;20379;-66
2021/06/11 07:04:28;;;;;;;43.53;27.33;;;18.80;99.90;;;;;;5034639;28;20033;-64
2021/06/11 07:06:53;;;;;;;41.30;25.80;;;18.70;99.90;;;;;;5054182;28;20328;-66
2021/06/11 07:09:19;;;;;;;39.95;26.25;;;18.70;99.90;;;;;;5040884;28;20037;-67
2021/06/11 07:11:48;;;;;;;46.17;26.45;;;18.70;99.90;;;;;;5042689;28;20021;-64
2021/06/11 07:14:17;;;;;;;47.75;27.88;;;18.80;99.90;;;;;;5036598;28;20025;-66
2021/06/11 07:16:44;;;;;;;46.70;26.17;;;19.00;99.90;;;;;;5042635;28;20144;-66
2021/06/11 07:19:10;;;;;;;42.08;26.23;;;19.20;99.90;;;;;;5037989;28;20032;-67
2021/06/11 07:21:36;;;;;;;37.00;22.17;;;19.30;99.90;;;;;;5043734;28;20205;-67
2021/06/11 07:24:01;;;;;;;35.70;21.73;;;19.30;99.90;;;;;;5044380;28;20084;-65
2021/06/11 07:26:27;;;;;;;39.58;25.13;;;19.20;99.90;;;;;;5046717;28;20036;-65
2021/06/11 07:28:54;;;;;;;39.65;21.98;;;19.20;99.90;;;;;;5049222;28;20125;-66
2021/06/11 07:31:20;;;;;;;37.38;23.83;;;19.20;99.90;;;;;;5053459;28;20029;-66
2021/06/11 07:33:47;;;;;;;34.10;22.13;;;19.20;99.90;;;;;;5037601;28;20109;-67
2021/06/11 07:36:12;;;;;;;35.90;22.83;;;19.00;99.90;;;;;;5036857;28;20033;-67
2021/06/11 07:38:38;;;;;;;37.95;23.45;;;19.00;99.90;;;;;;5033658;28;20033;-64
2021/06/11 07:41:04;;;;;;;38.25;23.88;;;18.80;99.90;;;;;;5037762;28;20040;-64
2021/06/11 07:43:30;;;;;;;40.00;23.83;;;18.80;99.90;;;;;;5032094;28;20088;-70
2021/06/11 07:45:56;;;;;;;41.92;24.50;;;18.80;99.90;;;;;;5037002;28;20486;-65
2021/06/11 07:48:22;;;;;;;39.88;23.15;;;18.80;99.90;;;;;;5030650;28;20112;-67
2021/06/11 07:50:48;;;;;;;39.17;23.50;;;18.80;99.90;;;;;;5030832;28;20458;-66
2021/06/11 07:53:15;;;;;;;30.98;22.15;;;18.60;99.90;;;;;;5032865;28;20021;-66
2021/06/11 07:55:41;;;;;;;34.63;21.35;;;18.60;99.90;;;;;;5041757;28;20033;-66
2021/06/11 07:58:07;;;;;;;36.67;22.70;;;18.60;99.90;;;;;;5046739;28;20033;-66
2021/06/11 08:00:34;;;;;;;28.98;20.15;;;18.60;99.90;;;;;;5053338;28;20037;-66
2021/06/11 08:03:00;;;;;;;27.83;18.95;;;18.60;99.90;;;;;;5051800;28;20043;-67
2021/06/11 08:05:28;;;;;;;31.60;20.20;;;18.50;99.90;;;;;;5053341;28;20076;-69
2021/06/11 08:07:54;;;;;;;29.77;19.05;;;18.60;99.90;;;;;;5052369;28;20031;-65
2021/06/11 08:10:20;;;;;;;32.90;20.90;;;18.70;99.90;;;;;;5049949;28;20104;-64
2021/06/11 08:12:46;;;;;;;34.88;19.58;;;18.50;99.90;;;;;;5050651;28;20025;-63
2021/06/11 08:15:12;;;;;;;30.85;19.65;;;18.50;99.90;;;;;;5048681;28;20056;-65
2021/06/11 08:17:39;;;;;;;30.75;20.50;;;18.50;99.90;;;;;;5049630;28;20099;-66
2021/06/11 08:20:06;;;;;;;25.67;18.60;;;18.60;99.90;;;;;;5049240;28;20093;-67
2021/06/11 08:22:32;;;;;;;33.95;20.67;;;18.70;99.90;;;;;;5049738;28;20463;-65
2021/06/11 08:24:58;;;;;;;26.88;18.83;;;18.70;99.90;;;;;;5046068;28;20025;-71
2021/06/11 08:27:24;;;;;;;27.08;18.25;;;18.70;99.90;;;;;;5048305;28;20513;-67
2021/06/11 08:29:51;;;;;;;24.98;16.55;;;18.80;99.90;;;;;;5047317;28;20270;-67
2021/06/11 08:32:16;;;;;;;22.75;15.52;;;19.00;99.90;;;;;;5040400;28;20406;-68
2021/06/11 08:34:43;;;;;;;24.70;16.38;;;18.90;99.90;;;;;;5045996;28;20125;-66
2021/06/11 08:37:11;;;;;;;20.63;15.18;;;19.00;99.90;;;;;;5045725;28;20017;-65
2021/06/11 08:39:37;;;;;;;20.33;14.05;;;19.00;99.90;;;;;;5046039;28;20048;-65
2021/06/11 08:42:06;;;;;;;26.45;15.35;;;19.10;99.90;;;;;;5042650;28;20029;-69
2021/06/11 08:44:31;;;;;;;19.88;14.15;;;18.90;99.90;;;;;;5044526;28;20049;-66
2021/06/11 08:46:57;;;;;;;20.98;14.18;;;19.00;99.90;;;;;;5042800;28;20549;-65
2021/06/11 08:49:24;;;;;;;20.05;14.02;;;19.00;99.90;;;;;;5043822;28;20343;-65
2021/06/11 08:51:52;;;;;;;20.63;15.18;;;19.10;99.90;;;;;;5048042;28;20098;-66
2021/06/11 08:54:17;;;;;;;21.73;14.35;;;19.20;99.90;;;;;;5046784;28;20021;-65
2021/06/11 08:56:43;;;;;;;22.45;15.77;;;19.20;99.90;;;;;;5049132;28;20446;-65
2021/06/11 08:59:11;;;;;;;22.02;14.93;;;19.30;99.90;;;;;;5045637;28;20512;-65
2021/06/11 09:01:37;;;;;;;20.95;15.13;;;19.50;99.90;;;;;;5044608;28;20031;-67
2021/06/11 09:04:03;;;;;;;21.42;14.80;;;19.50;99.90;;;;;;5034724;28;20403;-69
2021/06/11 09:06:28;;;;;;;18.73;13.23;;;19.50;99.90;;;;;;5046365;28;20025;-65
2021/06/11 09:09:08;;;;;;;20.83;13.38;;;19.50;99.90;;;;;;5050066;28;20036;-65
2021/06/11 09:11:36;;;;;;;19.58;14.25;;;19.50;99.90;;;;;;5051992;28;20115;-66
2021/06/11 09:14:08;;;;;;;22.40;14.00;;;19.50;99.90;;;;;;5051000;28;20112;-64
2021/06/11 09:16:48;;;;;;;21.98;15.27;;;19.20;99.90;;;;;;5045691;28;20028;-65
2021/06/11 09:19:23;;;;;;;20.35;13.45;;;19.20;99.90;;;;;;5030445;28;20026;-66
2021/06/11 09:21:50;;;;;;;21.20;14.85;;;19.40;99.90;;;;;;5036257;28;20113;-65
2021/06/11 09:26:57;;;;;;;19.98;13.57;;;19.70;99.90;;;;;;5047242;28;20044;-65
2021/06/11 09:29:36;;;;;;;25.92;14.80;;;19.90;99.90;;;;;;5043819;28;20033;-65
2021/06/11 09:32:20;;;;;;;21.42;14.43;;;20.20;99.90;;;;;;5058555;28;20028;-64
2021/06/11 09:34:51;;;;;;;19.75;13.73;;;20.40;99.90;;;;;;5061239;28;20028;-64
2021/06/11 09:37:20;;;;;;;19.53;14.00;;;20.30;99.90;;;;;;5043382;28;20040;-65
2021/06/11 09:40:03;;;;;;;21.95;14.68;;;20.20;99.90;;;;;;5044038;28;20048;-64
2021/06/11 09:42:35;;;;;;;25.67;17.38;;;19.90;99.90;;;;;;5046806;28;20111;-65
2021/06/11 09:45:21;;;;;;;19.77;14.15;;;20.00;99.90;;;;;;5048106;28;20052;-65
2021/06/11 09:47:49;;;;;;;20.02;14.10;;;20.00;99.90;;;;;;5048181;28;20352;-66
2021/06/11 09:50:35;;;;;;;20.80;16.13;;;20.20;99.90;;;;;;5048985;28;20024;-66
2021/06/11 09:53:02;;;;;;;22.23;14.65;;;20.30;99.90;;;;;;5045369;28;20166;-65
2021/06/11 09:55:33;;;;;;;20.42;14.40;;;20.30;99.90;;;;;;5049408;28;20223;-65
2021/06/11 09:58:06;;;;;;;22.10;14.75;;;20.40;99.90;;;;;;5048703;28;20013;-66
2021/06/11 10:00:34;;;;;;;22.77;15.27;;;20.40;99.90;;;;;;5050022;28;20121;-65
2021/06/11 10:03:00;;;;;;;20.13;14.38;;;20.30;99.90;;;;;;5048875;28;20243;-63
2021/06/11 10:05:27;;;;;;;21.98;14.20;;;20.50;99.90;;;;;;5049375;28;20029;-66
2021/06/11 10:07:55;;;;;;;21.35;15.07;;;20.40;99.90;;;;;;5048148;28;20025;-64
2021/06/11 10:10:21;;;;;;;20.83;13.57;;;20.40;99.90;;;;;;5047833;28;20035;-65
2021/06/11 10:12:47;;;;;;;24.60;16.05;;;20.50;99.90;;;;;;5049665;28;20054;-66
2021/06/11 10:15:15;;;;;;;23.92;15.70;;;20.40;99.90;;;;;;5049446;28;20021;-66
2021/06/11 10:17:42;;;;;;;23.58;15.95;;;20.20;99.90;;;;;;5050325;28;20085;-67
2021/06/11 10:20:13;;;;;;;25.38;15.90;;;20.10;99.90;;;;;;5046618;28;20021;-67
2021/06/11 10:22:38;;;;;;;20.77;14.27;;;20.10;99.90;;;;;;5051450;28;20066;-65
2021/06/11 10:25:11;;;;;;;22.38;14.02;;;20.20;99.90;;;;;;5052705;28;20227;-66
2021/06/11 10:27:41;;;;;;;33.95;20.90;;;20.30;99.90;;;;;;5050535;28;20100;-67
2021/06/11 10:30:11;;;;;;;27.25;16.83;;;20.30;99.90;;;;;;5060425;28;20021;-67
2021/06/11 10:32:41;;;;;;;20.35;13.23;;;20.40;99.90;;;;;;5069284;28;20005;-68
2021/06/11 10:35:09;;;;;;;18.98;12.27;;;20.50;99.90;;;;;;5063654;28;20386;-64
2021/06/11 10:37:39;;;;;;;19.83;13.73;;;20.40;99.90;;;;;;5047194;28;20068;-64
2021/06/11 10:40:21;;;;;;;16.98;12.65;;;20.30;99.90;;;;;;5041849;28;20028;-66
2021/06/11 10:42:46;;;;;;;15.63;12.00;;;20.40;99.90;;;;;;5046439;28;20109;-68
2021/06/11 10:45:15;;;;;;;14.98;12.02;;;20.60;99.90;;;;;;5055024;28;20089;-70
2021/06/11 10:47:53;;;;;;;18.05;11.93;;;20.80;99.90;;;;;;5048746;28;20085;-65
2021/06/11 10:50:32;;;;;;;16.20;12.32;;;20.60;99.90;;;;;;5047076;28;20025;-66
2021/06/11 10:53:28;;;;;;;18.35;13.15;;;20.70;99.90;;;;;;5033088;28;20036;-67
2021/06/11 10:56:15;;;;;;;16.90;12.05;;;20.80;99.90;;;;;;5046485;28;20059;-66
2021/06/11 10:58:44;;;;;;;15.30;11.88;;;20.90;99.90;;;;;;5034173;28;20025;-65
2021/06/11 11:01:21;;;;;;;14.60;11.48;;;21.10;99.90;;;;;;5045521;28;20047;-67
2021/06/11 11:03:47;;;;;;;14.15;10.35;;;21.10;99.90;;;;;;5041280;28;20366;-65
2021/06/11 11:06:34;;;;;;;15.88;10.45;;;21.30;99.90;;;;;;5048163;28;20189;-64
2021/06/11 11:09:03;;;;;;;19.80;13.60;;;21.20;99.90;;;;;;5083164;22;20071;-63
2021/06/11 11:11:32;;;;;;;13.85;10.85;;;21.20;99.90;;;;;;5084486;28;20099;-65
2021/06/11 11:13:58;;;;;;;14.02;11.73;;;21.30;99.90;;;;;;5097785;28;20142;-63
2021/06/11 11:16:27;;;;;;;15.93;12.07;;;21.20;99.90;;;;;;5099539;28;20335;-65
2021/06/11 11:18:53;;;;;;;16.17;12.20;;;20.90;99.90;;;;;;5077566;28;20025;-65
2021/06/11 11:21:35;;;;;;;19.05;13.95;;;20.60;99.90;;;;;;5067516;28;20036;-64
2021/06/11 11:24:10;;;;;;;18.23;13.60;;;20.30;99.90;;;;;;5058325;28;20443;-64
2021/06/11 11:26:44;;;;;;;16.48;12.48;;;20.30;99.90;;;;;;5066154;28;20009;-64
2021/06/11 11:29:11;;;;;;;17.33;12.10;;;20.30;99.90;;;;;;5067295;28;20031;-65
2021/06/11 11:31:39;;;;;;;15.73;12.80;;;20.60;99.90;;;;;;5068951;28;20047;-63
2021/06/11 11:34:05;;;;;;;18.25;12.68;;;20.70;99.90;;;;;;5069481;28;20029;-64
2021/06/11 11:36:32;;;;;;;21.35;13.88;;;20.50;99.90;;;;;;5066929;28;20513;-63
2021/06/11 11:38:58;;;;;;;18.85;14.35;;;20.20;99.90;;;;;;5068662;28;20039;-63
2021/06/11 11:41:23;;;;;;;18.10;12.05;;;20.10;99.90;;;;;;5069579;28;20025;-63
2021/06/11 11:43:49;;;;;;;16.58;13.18;;;20.10;99.90;;;;;;5067934;28;20028;-64
2021/06/11 11:46:16;;;;;;;14.05;11.75;;;20.40;99.90;;;;;;5068930;28;20031;-63
2021/06/11 11:48:42;;;;;;;16.27;12.52;;;20.70;99.90;;;;;;5068344;28;20438;-65
2021/06/11 11:51:07;;;;;;;16.55;13.07;;;20.50;99.90;;;;;;5067761;28;20104;-63
2021/06/11 11:53:33;;;;;;;15.68;11.40;;;20.40;99.90;;;;;;5068557;28;20067;-64
2021/06/11 11:55:59;;;;;;;17.10;11.98;;;20.60;99.90;;;;;;5068789;28;20028;-65
2021/06/11 11:58:26;;;;;;;20.15;14.02;;;20.90;99.90;;;;;;5068628;28;20066;-66
2021/06/11 12:00:52;;;;;;;16.10;12.75;;;20.80;99.90;;;;;;5068075;28;20105;-64
2021/06/11 12:03:18;;;;;;;16.38;12.52;;;20.80;99.90;;;;;;5061078;28;20460;-63
2021/06/11 12:05:44;;;;;;;18.65;12.68;;;20.80;99.90;;;;;;5047080;28;20104;-68
2021/06/11 12:08:09;;;;;;;18.10;13.43;;;21.00;99.90;;;;;;5062122;28;20108;-63
2021/06/11 12:10:35;;;;;;;18.40;12.52;;;20.90;99.90;;;;;;5052947;28;20340;-63
2021/06/11 12:13:00;;;;;;;19.92;13.40;;;20.90;99.90;;;;;;5067887;28;20062;-68
2021/06/11 12:15:26;;;;;;;19.35;12.15;;;20.90;99.90;;;;;;5068287;28;20025;-64
2021/06/11 12:17:51;;;;;;;16.20;12.60;;;20.90;99.90;;;;;;5057728;28;20518;-64
2021/06/11 12:20:17;;;;;;;19.85;12.93;;;20.90;99.90;;;;;;5059353;28;20036;-65
2021/06/11 12:22:43;;;;;;;17.17;12.02;;;21.00;99.90;;;;;;5068638;28;20052;-64
2021/06/11 12:25:09;;;;;;;16.10;12.50;;;21.10;99.90;;;;;;5067733;28;20024;-65
2021/06/11 12:27:35;;;;;;;15.25;11.13;;;21.30;99.90;;;;;;5078582;28;20084;-63
2021/06/11 12:30:00;;;;;;;21.02;12.05;;;21.40;99.90;;;;;;5070702;28;20104;-64
2021/06/11 12:32:26;;;;;;;19.80;12.35;;;21.20;99.90;;;;;;5057122;28;20028;-64
2021/06/11 12:34:51;;;;;;;18.60;13.00;;;21.30;99.90;;;;;;5068559;28;20020;-66